sensor_id;sensor_type;location;lat;lon;timestamp;temperature;humidity
24412;DHT22;12544;46.760;15.942;2024-02-04T00:01:09;3.90;99.90
24412;DHT22;12544;46.760;15.942;2024-02-04T00:03:34;4.00;99.90
24412;DHT22;12544;46.760;15.942;2024-02-04T00:06:00;3.90;99.90
24412;DHT22;12544;46.760;15.942;2024-02-04T00:08:26;3.90;99.90
24412;DHT22;12544;46.760;15.942;2024-02-04T00:10:52;3.80;99.90
24412;DHT22;12544;46.760;15.942;2024-02-04T00:13:17;3.80;99.90
24412;DHT22;12544;46.760;15.942;2024-02-04T00:15:43;3.80;99.90
24412;DHT22;12544;46.760;15.942;2024-02-04T00:18:08;3.60;99.90
24412;DHT22;12544;46.760;15.942;2024-02-04T00:20:34;3.60;99.90
24412;DHT22;12544;46.760;15.942;2024-02-04T00:23:00;3.60;99.90
24412;DHT22;12544;46.760;15.942;2024-02-04T00:25:25;3.60;99.90
24412;DHT22;12544;46.760;15.942;2024-02-04T00:27:51;3.80;99.90
24412;DHT22;12544;46.760;15.942;2024-02-04T00:30:17;3.90;99.90
24412;DHT22;12544;46.760;15.942;2024-02-04T00:32:50;4.10;99.90
24412;DHT22;12544;46.760;15.942;2024-02-04T00:35:16;4.30;99.90
24412;DHT22;12544;46.760;15.942;2024-02-04T00:37:42;4.40;99.90
24412;DHT22;12544;46.760;15.942;2024-02-04T00:40:08;4.50;99.90
24412;DHT22;12544;46.760;15.942;2024-02-04T00:42:34;4.50;99.90
24412;DHT22;12544;46.760;15.942;2024-02-04T00:45:00;4.30;99.90
24412;DHT22;12544;46.760;15.942;2024-02-04T00:47:26;4.00;99.90
24412;DHT22;12544;46.760;15.942;2024-02-04T00:49:52;3.90;99.90
24412;DHT22;12544;46.760;15.942;2024-02-04T00:52:17;3.70;99.90
24412;DHT22;12544;46.760;15.942;2024-02-04T00:54:43;3.50;99.90
24412;DHT22;12544;46.760;15.942;2024-02-04T00:57:08;3.30;99.90
24412;DHT22;12544;46.760;15.942;2024-02-04T00:59:34;3.20;99.90
24412;DHT22;12544;46.760;15.942;2024-02-04T01:01:59;3.00;99.90
24412;DHT22;12544;46.760;15.942;2024-02-04T01:04:25;3.10;99.90
24412;DHT22;12544;46.760;15.942;2024-02-04T01:06:51;2.90;99.90
24412;DHT22;12544;46.760;15.942;2024-02-04T01:09:16;2.90;99.90
24412;DHT22;12544;46.760;15.942;2024-02-04T01:11:42;2.90;99.90
24412;DHT22;12544;46.760;15.942;2024-02-04T01:14:07;2.90;99.90
24412;DHT22;12544;46.760;15.942;2024-02-04T01:16:33;2.90;99.90
24412;DHT22;12544;46.760;15.942;2024-02-04T01:18:59;2.90;99.90
24412;DHT22;12544;46.760;15.942;2024-02-04T01:21:24;2.90;99.90
24412;DHT22;12544;46.760;15.942;2024-02-04T01:23:51;2.90;99.90
24412;DHT22;12544;46.760;15.942;2024-02-04T01:26:16;2.90;99.90
24412;DHT22;12544;46.760;15.942;2024-02-04T01:28:42;3.10;99.90
24412;DHT22;12544;46.760;15.942;2024-02-04T01:31:07;3.20;99.90
24412;DHT22;12544;46.760;15.942;2024-02-04T01:33:33;3.20;99.90
24412;DHT22;12544;46.760;15.942;2024-02-04T01:36:01;3.40;99.90
24412;DHT22;12544;46.760;15.942;2024-02-04T01:38:26;3.40;99.90
24412;DHT22;12544;46.760;15.942;2024-02-04T01:40:52;3.50;99.90
24412;DHT22;12544;46.760;15.942;2024-02-04T01:43:19;3.60;99.90
24412;DHT22;12544;46.760;15.942;2024-02-04T01:45:47;3.60;99.90
24412;DHT22;12544;46.760;15.942;2024-02-04T01:48:13;3.60;99.90
24412;DHT22;12544;46.760;15.942;2024-02-04T01:50:41;3.60;99.90
24412;DHT22;12544;46.760;15.942;2024-02-04T01:53:07;3.70;99.90
24412;DHT22;12544;46.760;15.942;2024-02-04T01:55:33;3.70;99.90
24412;DHT22;12544;46.760;15.942;2024-02-04T01:57:58;3.70;99.90
24412;DHT22;12544;46.760;15.942;2024-02-04T02:00:24;3.70;99.90
24412;DHT22;12544;46.760;15.942;2024-02-04T02:02:50;3.70;99.90
24412;DHT22;12544;46.760;15.942;2024-02-04T02:05:18;3.70;99.90
24412;DHT22;12544;46.760;15.942;2024-02-04T02:07:43;3.60;99.90
24412;DHT22;12544;46.760;15.942;2024-02-04T02:10:11;3.60;99.90
24412;DHT22;12544;46.760;15.942;2024-02-04T02:13:00;3.60;99.90
24412;DHT22;12544;46.760;15.942;2024-02-04T02:15:34;3.50;99.90
24412;DHT22;12544;46.760;15.942;2024-02-04T02:18:09;3.40;99.90
24412;DHT22;12544;46.760;15.942;2024-02-04T02:20:50;3.50;99.90
24412;DHT22;12544;46.760;15.942;2024-02-04T02:23:35;3.50;99.90
24412;DHT22;12544;46.760;15.942;2024-02-04T02:26:02;3.70;99.90
24412;DHT22;12544;46.760;15.942;2024-02-04T02:28:29;3.90;99.90
24412;DHT22;12544;46.760;15.942;2024-02-04T02:30:55;4.00;99.90
24412;DHT22;12544;46.760;15.942;2024-02-04T02:33:20;4.10;99.90
24412;DHT22;12544;46.760;15.942;2024-02-04T02:35:50;4.20;99.90
24412;DHT22;12544;46.760;15.942;2024-02-04T02:38:37;4.20;99.90
24412;DHT22;12544;46.760;15.942;2024-02-04T02:41:09;4.10;99.90
24412;DHT22;12544;46.760;15.942;2024-02-04T02:43:39;3.90;99.90
24412;DHT22;12544;46.760;15.942;2024-02-04T02:46:07;3.60;99.90
24412;DHT22;12544;46.760;15.942;2024-02-04T02:48:33;3.40;99.90
24412;DHT22;12544;46.760;15.942;2024-02-04T02:50:58;3.20;99.90
24412;DHT22;12544;46.760;15.942;2024-02-04T02:53:24;3.20;99.90
24412;DHT22;12544;46.760;15.942;2024-02-04T02:55:50;3.10;99.90
24412;DHT22;12544;46.760;15.942;2024-02-04T02:58:15;3.10;99.90
24412;DHT22;12544;46.760;15.942;2024-02-04T03:00:41;2.90;99.90
24412;DHT22;12544;46.760;15.942;2024-02-04T03:03:06;2.90;99.90
24412;DHT22;12544;46.760;15.942;2024-02-04T03:05:32;2.70;99.90
24412;DHT22;12544;46.760;15.942;2024-02-04T03:07:58;2.70;99.90
24412;DHT22;12544;46.760;15.942;2024-02-04T03:10:24;2.70;99.90
24412;DHT22;12544;46.760;15.942;2024-02-04T03:12:49;2.70;99.90
24412;DHT22;12544;46.760;15.942;2024-02-04T03:15:15;2.80;99.90
24412;DHT22;12544;46.760;15.942;2024-02-04T03:17:42;2.80;99.90
24412;DHT22;12544;46.760;15.942;2024-02-04T03:20:09;2.90;99.90
24412;DHT22;12544;46.760;15.942;2024-02-04T03:22:35;2.90;99.90
24412;DHT22;12544;46.760;15.942;2024-02-04T03:25:01;2.80;99.90
24412;DHT22;12544;46.760;15.942;2024-02-04T03:27:26;2.80;99.90
24412;DHT22;12544;46.760;15.942;2024-02-04T03:29:52;2.70;99.90
24412;DHT22;12544;46.760;15.942;2024-02-04T03:32:17;2.70;99.90
24412;DHT22;12544;46.760;15.942;2024-02-04T03:34:43;2.50;99.90
24412;DHT22;12544;46.760;15.942;2024-02-04T03:37:09;2.40;99.90
24412;DHT22;12544;46.760;15.942;2024-02-04T03:39:35;2.50;99.90
24412;DHT22;12544;46.760;15.942;2024-02-04T03:42:01;2.50;99.90
24412;DHT22;12544;46.760;15.942;2024-02-04T03:44:26;2.30;99.90
24412;DHT22;12544;46.760;15.942;2024-02-04T03:46:52;2.30;99.90
24412;DHT22;12544;46.760;15.942;2024-02-04T03:49:17;1.90;99.90
24412;DHT22;12544;46.760;15.942;2024-02-04T03:51:43;2.00;99.90
24412;DHT22;12544;46.760;15.942;2024-02-04T03:54:09;1.80;99.90
24412;DHT22;12544;46.760;15.942;2024-02-04T03:56:35;1.90;99.90
24412;DHT22;12544;46.760;15.942;2024-02-04T03:59:00;1.80;99.90
24412;DHT22;12544;46.760;15.942;2024-02-04T04:01:26;1.80;99.90
24412;DHT22;12544;46.760;15.942;2024-02-04T04:03:52;1.70;99.90
24412;DHT22;12544;46.760;15.942;2024-02-04T04:06:17;1.60;99.90
24412;DHT22;12544;46.760;15.942;2024-02-04T04:08:43;1.60;99.90
24412;DHT22;12544;46.760;15.942;2024-02-04T04:11:09;1.60;99.90
24412;DHT22;12544;46.760;15.942;2024-02-04T04:13:36;1.40;99.90
24412;DHT22;12544;46.760;15.942;2024-02-04T04:16:02;1.30;99.90
24412;DHT22;12544;46.760;15.942;2024-02-04T04:18:28;1.20;99.90
24412;DHT22;12544;46.760;15.942;2024-02-04T04:20:54;1.20;99.90
24412;DHT22;12544;46.760;15.942;2024-02-04T04:23:19;1.20;99.90
24412;DHT22;12544;46.760;15.942;2024-02-04T04:25:45;1.30;99.90
24412;DHT22;12544;46.760;15.942;2024-02-04T04:28:11;1.20;99.90
24412;DHT22;12544;46.760;15.942;2024-02-04T04:33:58;1.20;99.90
24412;DHT22;12544;46.760;15.942;2024-02-04T04:36:24;1.20;99.90
24412;DHT22;12544;46.760;15.942;2024-02-04T04:38:49;1.20;99.90
24412;DHT22;12544;46.760;15.942;2024-02-04T04:41:16;1.20;99.90
24412;DHT22;12544;46.760;15.942;2024-02-04T04:43:41;1.20;99.90
24412;DHT22;12544;46.760;15.942;2024-02-04T04:46:07;1.10;99.90
24412;DHT22;12544;46.760;15.942;2024-02-04T04:48:33;1.10;99.90
24412;DHT22;12544;46.760;15.942;2024-02-04T04:50:59;1.10;99.90
24412;DHT22;12544;46.760;15.942;2024-02-04T04:53:24;1.20;99.90
24412;DHT22;12544;46.760;15.942;2024-02-04T04:55:50;1.30;99.90
24412;DHT22;12544;46.760;15.942;2024-02-04T04:58:16;1.30;99.90
24412;DHT22;12544;46.760;15.942;2024-02-04T05:00:41;1.30;99.90
24412;DHT22;12544;46.760;15.942;2024-02-04T05:03:07;1.30;99.90
24412;DHT22;12544;46.760;15.942;2024-02-04T05:05:32;1.50;99.90
24412;DHT22;12544;46.760;15.942;2024-02-04T05:07:58;1.70;99.90
24412;DHT22;12544;46.760;15.942;2024-02-04T05:10:23;1.80;99.90
24412;DHT22;12544;46.760;15.942;2024-02-04T05:12:50;1.90;99.90
24412;DHT22;12544;46.760;15.942;2024-02-04T05:15:15;2.10;99.90
24412;DHT22;12544;46.760;15.942;2024-02-04T05:17:41;2.20;99.90
24412;DHT22;12544;46.760;15.942;2024-02-04T05:20:07;2.30;99.90
24412;DHT22;12544;46.760;15.942;2024-02-04T05:22:33;2.30;99.90
24412;DHT22;12544;46.760;15.942;2024-02-04T05:24:58;2.20;99.90
24412;DHT22;12544;46.760;15.942;2024-02-04T05:27:24;2.00;99.90
24412;DHT22;12544;46.760;15.942;2024-02-04T05:29:50;2.00;99.90
24412;DHT22;12544;46.760;15.942;2024-02-04T05:32:15;1.90;99.90
24412;DHT22;12544;46.760;15.942;2024-02-04T05:34:41;1.90;99.90
24412;DHT22;12544;46.760;15.942;2024-02-04T05:37:06;2.00;99.90
24412;DHT22;12544;46.760;15.942;2024-02-04T05:39:32;2.20;99.90
24412;DHT22;12544;46.760;15.942;2024-02-04T05:41:58;2.30;99.90
24412;DHT22;12544;46.760;15.942;2024-02-04T05:44:23;2.20;99.90
24412;DHT22;12544;46.760;15.942;2024-02-04T05:46:49;2.20;99.90
24412;DHT22;12544;46.760;15.942;2024-02-04T05:49:15;2.00;99.90
24412;DHT22;12544;46.760;15.942;2024-02-04T05:51:41;1.70;99.90
24412;DHT22;12544;46.760;15.942;2024-02-04T05:54:07;1.40;99.90
24412;DHT22;12544;46.760;15.942;2024-02-04T05:56:33;1.30;99.90
24412;DHT22;12544;46.760;15.942;2024-02-04T05:58:58;1.50;99.90
24412;DHT22;12544;46.760;15.942;2024-02-04T06:01:24;1.80;99.90
24412;DHT22;12544;46.760;15.942;2024-02-04T06:03:50;1.70;99.90
24412;DHT22;12544;46.760;15.942;2024-02-04T06:06:16;1.70;99.90
24412;DHT22;12544;46.760;15.942;2024-02-04T06:08:43;1.80;99.90
24412;DHT22;12544;46.760;15.942;2024-02-04T06:11:12;1.60;99.90
24412;DHT22;12544;46.760;15.942;2024-02-04T06:13:42;1.50;99.90
24412;DHT22;12544;46.760;15.942;2024-02-04T06:16:08;1.50;99.90
24412;DHT22;12544;46.760;15.942;2024-02-04T06:18:35;1.40;99.90
24412;DHT22;12544;46.760;15.942;2024-02-04T06:21:05;1.40;99.90
24412;DHT22;12544;46.760;15.942;2024-02-04T06:23:31;1.30;99.90
24412;DHT22;12544;46.760;15.942;2024-02-04T06:25:57;1.20;99.90
24412;DHT22;12544;46.760;15.942;2024-02-04T06:28:23;1.40;99.90
24412;DHT22;12544;46.760;15.942;2024-02-04T06:30:49;1.60;99.90
24412;DHT22;12544;46.760;15.942;2024-02-04T06:33:15;1.60;99.90
24412;DHT22;12544;46.760;15.942;2024-02-04T06:35:41;1.60;99.90
24412;DHT22;12544;46.760;15.942;2024-02-04T06:38:06;1.20;99.90
24412;DHT22;12544;46.760;15.942;2024-02-04T06:40:32;1.10;99.90
24412;DHT22;12544;46.760;15.942;2024-02-04T06:42:57;1.30;99.90
24412;DHT22;12544;46.760;15.942;2024-02-04T06:45:23;1.30;99.90
24412;DHT22;12544;46.760;15.942;2024-02-04T06:47:49;1.00;99.90
24412;DHT22;12544;46.760;15.942;2024-02-04T06:50:14;1.10;99.90
24412;DHT22;12544;46.760;15.942;2024-02-04T06:52:41;1.00;99.90
24412;DHT22;12544;46.760;15.942;2024-02-04T06:55:08;1.00;99.90
24412;DHT22;12544;46.760;15.942;2024-02-04T06:57:34;1.20;99.90
24412;DHT22;12544;46.760;15.942;2024-02-04T06:59:59;1.30;99.90
24412;DHT22;12544;46.760;15.942;2024-02-04T07:02:25;1.30;99.90
24412;DHT22;12544;46.760;15.942;2024-02-04T07:04:51;1.40;99.90
24412;DHT22;12544;46.760;15.942;2024-02-04T07:07:16;1.60;99.90
24412;DHT22;12544;46.760;15.942;2024-02-04T07:09:42;1.70;99.90
24412;DHT22;12544;46.760;15.942;2024-02-04T07:12:08;1.70;99.90
24412;DHT22;12544;46.760;15.942;2024-02-04T07:14:36;1.50;99.90
24412;DHT22;12544;46.760;15.942;2024-02-04T07:17:02;1.50;99.90
24412;DHT22;12544;46.760;15.942;2024-02-04T07:19:28;1.70;99.90
24412;DHT22;12544;46.760;15.942;2024-02-04T07:21:53;1.70;99.90
24412;DHT22;12544;46.760;15.942;2024-02-04T07:24:19;1.80;99.90
24412;DHT22;12544;46.760;15.942;2024-02-04T07:26:46;1.80;99.90
24412;DHT22;12544;46.760;15.942;2024-02-04T07:29:15;1.90;99.90
24412;DHT22;12544;46.760;15.942;2024-02-04T07:31:42;2.00;99.90
24412;DHT22;12544;46.760;15.942;2024-02-04T07:34:08;2.10;99.90
24412;DHT22;12544;46.760;15.942;2024-02-04T07:39:55;2.40;99.90
24412;DHT22;12544;46.760;15.942;2024-02-04T07:42:21;2.90;99.90
24412;DHT22;12544;46.760;15.942;2024-02-04T07:44:47;3.40;99.90
24412;DHT22;12544;46.760;15.942;2024-02-04T07:47:12;3.60;99.90
24412;DHT22;12544;46.760;15.942;2024-02-04T07:49:38;3.70;99.90
24412;DHT22;12544;46.760;15.942;2024-02-04T07:52:04;3.70;99.90
24412;DHT22;12544;46.760;15.942;2024-02-04T07:54:30;3.60;99.90
24412;DHT22;12544;46.760;15.942;2024-02-04T08:00:18;3.30;99.90
24412;DHT22;12544;46.760;15.942;2024-02-04T08:06:05;2.80;99.90
24412;DHT22;12544;46.760;15.942;2024-02-04T08:08:31;2.70;99.90
24412;DHT22;12544;46.760;15.942;2024-02-04T08:10:57;2.60;99.90
24412;DHT22;12544;46.760;15.942;2024-02-04T08:13:23;2.80;99.90
24412;DHT22;12544;46.760;15.942;2024-02-04T08:15:48;2.90;99.90
24412;DHT22;12544;46.760;15.942;2024-02-04T08:18:14;2.90;99.90
24412;DHT22;12544;46.760;15.942;2024-02-04T08:20:39;3.00;99.90
24412;DHT22;12544;46.760;15.942;2024-02-04T08:23:05;3.10;99.90
24412;DHT22;12544;46.760;15.942;2024-02-04T08:25:31;3.30;99.90
24412;DHT22;12544;46.760;15.942;2024-02-04T08:27:58;3.40;99.90
24412;DHT22;12544;46.760;15.942;2024-02-04T08:30:23;3.30;99.90
24412;DHT22;12544;46.760;15.942;2024-02-04T08:32:49;3.40;99.90
24412;DHT22;12544;46.760;15.942;2024-02-04T08:35:16;3.50;99.90
24412;DHT22;12544;46.760;15.942;2024-02-04T08:37:41;3.60;99.90
24412;DHT22;12544;46.760;15.942;2024-02-04T08:40:07;3.70;99.90
24412;DHT22;12544;46.760;15.942;2024-02-04T08:42:33;4.00;99.90
24412;DHT22;12544;46.760;15.942;2024-02-04T08:44:59;4.30;99.90
24412;DHT22;12544;46.760;15.942;2024-02-04T08:47:24;4.60;99.90
24412;DHT22;12544;46.760;15.942;2024-02-04T08:49:50;5.00;99.90
24412;DHT22;12544;46.760;15.942;2024-02-04T08:52:15;5.60;99.90
24412;DHT22;12544;46.760;15.942;2024-02-04T08:54:41;6.00;99.90
24412;DHT22;12544;46.760;15.942;2024-02-04T08:57:07;6.40;99.90
24412;DHT22;12544;46.760;15.942;2024-02-04T08:59:32;6.80;99.90
24412;DHT22;12544;46.760;15.942;2024-02-04T09:01:58;6.90;99.90
24412;DHT22;12544;46.760;15.942;2024-02-04T09:04:24;6.80;99.90
24412;DHT22;12544;46.760;15.942;2024-02-04T09:06:49;6.60;99.90
24412;DHT22;12544;46.760;15.942;2024-02-04T09:09:15;6.50;99.90
24412;DHT22;12544;46.760;15.942;2024-02-04T09:11:40;6.20;99.90
24412;DHT22;12544;46.760;15.942;2024-02-04T09:14:06;6.00;99.90
24412;DHT22;12544;46.760;15.942;2024-02-04T09:16:32;5.80;99.90
24412;DHT22;12544;46.760;15.942;2024-02-04T09:18:58;5.80;99.90
24412;DHT22;12544;46.760;15.942;2024-02-04T09:21:23;6.00;99.90
24412;DHT22;12544;46.760;15.942;2024-02-04T09:23:49;6.20;99.90
24412;DHT22;12544;46.760;15.942;2024-02-04T09:26:14;6.50;99.90
24412;DHT22;12544;46.760;15.942;2024-02-04T09:28:40;6.70;99.90
24412;DHT22;12544;46.760;15.942;2024-02-04T09:31:09;6.90;99.90
24412;DHT22;12544;46.760;15.942;2024-02-04T09:33:35;6.90;99.90
24412;DHT22;12544;46.760;15.942;2024-02-04T09:36:01;6.90;99.90
24412;DHT22;12544;46.760;15.942;2024-02-04T09:38:26;7.00;99.90
24412;DHT22;12544;46.760;15.942;2024-02-04T09:40:52;7.00;99.90
24412;DHT22;12544;46.760;15.942;2024-02-04T09:43:18;7.20;99.90
24412;DHT22;12544;46.760;15.942;2024-02-04T09:45:44;7.40;99.90
24412;DHT22;12544;46.760;15.942;2024-02-04T09:48:10;7.60;99.90
24412;DHT22;12544;46.760;15.942;2024-02-04T09:50:37;7.80;99.90
24412;DHT22;12544;46.760;15.942;2024-02-04T09:53:03;8.10;99.90
24412;DHT22;12544;46.760;15.942;2024-02-04T09:55:31;8.50;99.90
24412;DHT22;12544;46.760;15.942;2024-02-04T09:57:57;8.80;99.90
24412;DHT22;12544;46.760;15.942;2024-02-04T10:00:43;9.00;99.90
24412;DHT22;12544;46.760;15.942;2024-02-04T10:03:11;9.20;99.90
24412;DHT22;12544;46.760;15.942;2024-02-04T10:05:36;9.40;99.90
24412;DHT22;12544;46.760;15.942;2024-02-04T10:08:04;9.50;99.90
24412;DHT22;12544;46.760;15.942;2024-02-04T10:10:30;9.80;99.90
24412;DHT22;12544;46.760;15.942;2024-02-04T10:12:57;10.30;99.90
24412;DHT22;12544;46.760;15.942;2024-02-04T10:15:23;10.80;99.90
24412;DHT22;12544;46.760;15.942;2024-02-04T10:17:51;11.10;99.90
24412;DHT22;12544;46.760;15.942;2024-02-04T10:20:19;11.50;99.90
24412;DHT22;12544;46.760;15.942;2024-02-04T10:22:45;11.60;99.90
24412;DHT22;12544;46.760;15.942;2024-02-04T10:28:32;11.40;99.90
24412;DHT22;12544;46.760;15.942;2024-02-04T10:30:58;11.40;99.90
24412;DHT22;12544;46.760;15.942;2024-02-04T10:33:23;11.40;99.90
24412;DHT22;12544;46.760;15.942;2024-02-04T10:35:53;11.50;99.90
24412;DHT22;12544;46.760;15.942;2024-02-04T10:38:19;11.50;99.90
24412;DHT22;12544;46.760;15.942;2024-02-04T10:40:45;11.30;99.90
24412;DHT22;12544;46.760;15.942;2024-02-04T10:43:12;11.40;99.90
24412;DHT22;12544;46.760;15.942;2024-02-04T10:45:41;11.40;99.90
24412;DHT22;12544;46.760;15.942;2024-02-04T10:48:08;11.20;99.90
24412;DHT22;12544;46.760;15.942;2024-02-04T10:50:35;11.40;99.90
24412;DHT22;12544;46.760;15.942;2024-02-04T10:53:05;11.70;99.90
24412;DHT22;12544;46.760;15.942;2024-02-04T10:55:34;12.00;99.90
24412;DHT22;12544;46.760;15.942;2024-02-04T10:58:03;12.30;99.90
24412;DHT22;12544;46.760;15.942;2024-02-04T11:00:30;12.60;99.90
24412;DHT22;12544;46.760;15.942;2024-02-04T11:02:56;13.10;99.90
24412;DHT22;12544;46.760;15.942;2024-02-04T11:05:23;13.50;99.90
24412;DHT22;12544;46.760;15.942;2024-02-04T11:07:50;13.70;99.90
24412;DHT22;12544;46.760;15.942;2024-02-04T11:10:16;14.10;99.90
24412;DHT22;12544;46.760;15.942;2024-02-04T11:12:43;14.50;99.90
24412;DHT22;12544;46.760;15.942;2024-02-04T11:15:14;14.50;99.90
24412;DHT22;12544;46.760;15.942;2024-02-04T11:26:36;15.10;99.30
24412;DHT22;12544;46.760;15.942;2024-02-04T11:29:07;15.20;98.40
24412;DHT22;12544;46.760;15.942;2024-02-04T11:31:34;15.20;98.40
24412;DHT22;12544;46.760;15.942;2024-02-04T11:34:04;15.40;98.10
24412;DHT22;12544;46.760;15.942;2024-02-04T11:36:30;15.50;97.60
24412;DHT22;12544;46.760;15.942;2024-02-04T11:39:17;15.70;97.80
24412;DHT22;12544;46.760;15.942;2024-02-04T11:41:47;15.90;96.70
24412;DHT22;12544;46.760;15.942;2024-02-04T11:44:22;16.00;96.00
24412;DHT22;12544;46.760;15.942;2024-02-04T11:46:49;16.00;96.30
24412;DHT22;12544;46.760;15.942;2024-02-04T11:49:18;16.30;95.00
24412;DHT22;12544;46.760;15.942;2024-02-04T11:51:48;16.50;94.70
24412;DHT22;12544;46.760;15.942;2024-02-04T11:54:16;16.60;93.80
24412;DHT22;12544;46.760;15.942;2024-02-04T11:56:43;16.70;94.40
24412;DHT22;12544;46.760;15.942;2024-02-04T11:59:09;16.60;93.50
24412;DHT22;12544;46.760;15.942;2024-02-04T12:01:36;16.60;93.80
24412;DHT22;12544;46.760;15.942;2024-02-04T12:04:13;16.60;92.60
24412;DHT22;12544;46.760;15.942;2024-02-04T12:06:42;16.60;93.70
24412;DHT22;12544;46.760;15.942;2024-02-04T12:09:09;16.70;92.90
24412;DHT22;12544;46.760;15.942;2024-02-04T12:11:38;16.80;93.70
24412;DHT22;12544;46.760;15.942;2024-02-04T12:14:04;17.00;92.50
24412;DHT22;12544;46.760;15.942;2024-02-04T12:19:53;17.00;92.40
24412;DHT22;12544;46.760;15.942;2024-02-04T12:22:18;17.20;93.00
24412;DHT22;12544;46.760;15.942;2024-02-04T12:28:06;17.50;91.90
24412;DHT22;12544;46.760;15.942;2024-02-04T12:30:32;17.70;91.10
24412;DHT22;12544;46.760;15.942;2024-02-04T12:33:03;17.70;90.10
24412;DHT22;12544;46.760;15.942;2024-02-04T12:35:41;17.90;90.10
24412;DHT22;12544;46.760;15.942;2024-02-04T12:38:06;17.80;90.90
24412;DHT22;12544;46.760;15.942;2024-02-04T12:40:32;18.10;87.90
24412;DHT22;12544;46.760;15.942;2024-02-04T12:42:59;17.70;87.60
24412;DHT22;12544;46.760;15.942;2024-02-04T12:45:27;18.10;87.40
24412;DHT22;12544;46.760;15.942;2024-02-04T12:47:55;17.70;87.80
24412;DHT22;12544;46.760;15.942;2024-02-04T12:50:22;17.60;87.50
24412;DHT22;12544;46.760;15.942;2024-02-04T12:52:48;18.10;85.80
24412;DHT22;12544;46.760;15.942;2024-02-04T12:55:23;18.40;84.10
24412;DHT22;12544;46.760;15.942;2024-02-04T12:57:50;18.70;82.10
24412;DHT22;12544;46.760;15.942;2024-02-04T13:00:18;18.80;83.40
24412;DHT22;12544;46.760;15.942;2024-02-04T13:02:44;18.90;81.70
24412;DHT22;12544;46.760;15.942;2024-02-04T13:05:10;19.20;80.60
24412;DHT22;12544;46.760;15.942;2024-02-04T13:07:44;19.30;81.50
24412;DHT22;12544;46.760;15.942;2024-02-04T13:10:13;19.00;79.30
24412;DHT22;12544;46.760;15.942;2024-02-04T13:12:39;19.00;80.40
24412;DHT22;12544;46.760;15.942;2024-02-04T13:15:05;19.20;81.30
24412;DHT22;12544;46.760;15.942;2024-02-04T13:17:31;19.20;81.90
24412;DHT22;12544;46.760;15.942;2024-02-04T13:19:57;19.30;80.60
24412;DHT22;12544;46.760;15.942;2024-02-04T13:22:39;19.00;80.50
24412;DHT22;12544;46.760;15.942;2024-02-04T13:25:05;19.00;80.90
24412;DHT22;12544;46.760;15.942;2024-02-04T13:27:33;19.00;81.10
24412;DHT22;12544;46.760;15.942;2024-02-04T13:29:59;19.10;81.90
24412;DHT22;12544;46.760;15.942;2024-02-04T13:32:25;19.00;82.50
24412;DHT22;12544;46.760;15.942;2024-02-04T13:34:50;18.90;80.40
24412;DHT22;12544;46.760;15.942;2024-02-04T13:37:17;18.60;81.60
24412;DHT22;12544;46.760;15.942;2024-02-04T13:39:43;18.50;81.10
24412;DHT22;12544;46.760;15.942;2024-02-04T13:42:10;18.70;81.80
24412;DHT22;12544;46.760;15.942;2024-02-04T13:44:35;18.80;82.20
24412;DHT22;12544;46.760;15.942;2024-02-04T13:47:01;18.90;81.80
24412;DHT22;12544;46.760;15.942;2024-02-04T13:49:27;19.20;79.00
24412;DHT22;12544;46.760;15.942;2024-02-04T13:51:52;19.30;80.10
24412;DHT22;12544;46.760;15.942;2024-02-04T13:54:22;18.80;80.40
24412;DHT22;12544;46.760;15.942;2024-02-04T13:56:47;18.70;83.00
24412;DHT22;12544;46.760;15.942;2024-02-04T13:59:13;18.60;82.90
24412;DHT22;12544;46.760;15.942;2024-02-04T14:01:39;18.30;83.20
24412;DHT22;12544;46.760;15.942;2024-02-04T14:04:04;18.40;83.60
24412;DHT22;12544;46.760;15.942;2024-02-04T14:06:30;18.50;84.30
24412;DHT22;12544;46.760;15.942;2024-02-04T14:08:56;18.30;83.90
24412;DHT22;12544;46.760;15.942;2024-02-04T14:11:21;18.60;82.80
24412;DHT22;12544;46.760;15.942;2024-02-04T14:13:47;18.30;83.00
24412;DHT22;12544;46.760;15.942;2024-02-04T14:16:13;18.40;84.10
24412;DHT22;12544;46.760;15.942;2024-02-04T14:18:39;17.40;87.90
24412;DHT22;12544;46.760;15.942;2024-02-04T14:21:06;16.60;90.50
24412;DHT22;12544;46.760;15.942;2024-02-04T14:23:34;16.20;91.10
24412;DHT22;12544;46.760;15.942;2024-02-04T14:26:02;15.70;92.30
24412;DHT22;12544;46.760;15.942;2024-02-04T14:28:28;15.50;92.80
24412;DHT22;12544;46.760;15.942;2024-02-04T14:30:53;15.50;92.70
24412;DHT22;12544;46.760;15.942;2024-02-04T14:33:19;15.10;93.20
24412;DHT22;12544;46.760;15.942;2024-02-04T14:35:45;14.80;93.70
24412;DHT22;12544;46.760;15.942;2024-02-04T14:38:10;14.70;93.60
24412;DHT22;12544;46.760;15.942;2024-02-04T14:40:36;14.70;93.90
24412;DHT22;12544;46.760;15.942;2024-02-04T14:43:02;14.80;94.00
24412;DHT22;12544;46.760;15.942;2024-02-04T14:45:28;15.00;93.60
24412;DHT22;12544;46.760;15.942;2024-02-04T14:47:53;14.80;94.10
24412;DHT22;12544;46.760;15.942;2024-02-04T14:53:41;14.50;94.50
24412;DHT22;12544;46.760;15.942;2024-02-04T14:56:07;14.50;95.00
24412;DHT22;12544;46.760;15.942;2024-02-04T14:58:35;14.50;95.10
24412;DHT22;12544;46.760;15.942;2024-02-04T15:01:01;14.50;95.00
24412;DHT22;12544;46.760;15.942;2024-02-04T15:03:26;14.40;95.50
24412;DHT22;12544;46.760;15.942;2024-02-04T15:05:52;14.30;95.90
24412;DHT22;12544;46.760;15.942;2024-02-04T15:08:18;14.30;95.90
24412;DHT22;12544;46.760;15.942;2024-02-04T15:10:44;14.20;96.20
24412;DHT22;12544;46.760;15.942;2024-02-04T15:13:10;14.10;96.30
24412;DHT22;12544;46.760;15.942;2024-02-04T15:15:36;14.20;96.50
24412;DHT22;12544;46.760;15.942;2024-02-04T15:18:01;14.00;96.30
24412;DHT22;12544;46.760;15.942;2024-02-04T15:20:28;14.00;96.50
24412;DHT22;12544;46.760;15.942;2024-02-04T15:22:54;13.90;97.00
24412;DHT22;12544;46.760;15.942;2024-02-04T15:25:21;13.70;97.70
24412;DHT22;12544;46.760;15.942;2024-02-04T15:27:48;13.50;98.30
24412;DHT22;12544;46.760;15.942;2024-02-04T15:30:25;13.20;98.50
24412;DHT22;12544;46.760;15.942;2024-02-04T15:32:51;13.10;99.10
24412;DHT22;12544;46.760;15.942;2024-02-04T15:35:18;12.90;99.30
24412;DHT22;12544;46.760;15.942;2024-02-04T15:37:44;12.90;99.60
24412;DHT22;12544;46.760;15.942;2024-02-04T15:40:24;12.80;99.70
24412;DHT22;12544;46.760;15.942;2024-02-04T15:42:50;12.80;99.90
24412;DHT22;12544;46.760;15.942;2024-02-04T15:45:15;12.70;99.90
24412;DHT22;12544;46.760;15.942;2024-02-04T15:47:49;12.60;99.80
24412;DHT22;12544;46.760;15.942;2024-02-04T15:50:24;12.50;99.90
24412;DHT22;12544;46.760;15.942;2024-02-04T15:52:50;12.50;99.90
24412;DHT22;12544;46.760;15.942;2024-02-04T15:55:16;12.30;99.90
24412;DHT22;12544;46.760;15.942;2024-02-04T15:57:50;12.30;99.90